Time;durP1;ratioP1;P1;durP2;ratioP2;P2;SDS_P1;SDS_P2;PMS_P1;PMS_P2;Temp;Humidity;BMP_temperature;BMP_pressure;BME280_temperature;BME280_humidity;BME280_pressure;Samples;Min_cycle;Max_cycle;Signal;HPM_P1;HPM_P2
2022/01/07 00:00:45;;;;;;;0.00;0.00;;;;;;;;;;4812531;29;20452;-88
2022/01/07 00:03:11;;;;;;;0.10;0.10;;;;;;;;;;4812067;29;20077;-88
2022/01/07 00:05:37;;;;;;;0.10;0.10;;;;;;;;;;4811406;29;20080;-88
2022/01/07 00:08:03;;;;;;;0.00;0.00;;;;;;;;;;4827135;29;20506;-88
2022/01/07 00:10:29;;;;;;;0.00;0.00;;;;;;;;;;4827031;29;20106;-88
2022/01/07 00:12:55;;;;;;;0.00;0.00;;;;;;;;;;4812022;29;20409;-88
2022/01/07 00:15:21;;;;;;;0.00;0.00;;;;;;;;;;4811930;29;20103;-88
2022/01/07 00:17:47;;;;;;;0.00;0.00;;;;;;;;;;4811984;29;20041;-88
2022/01/07 00:20:13;;;;;;;0.00;0.00;;;;;;;;;;4811969;29;20464;-88
2022/01/07 00:22:40;;;;;;;0.20;0.10;;;;;;;;;;4797058;29;20046;-88
2022/01/07 00:25:06;;;;;;;0.10;0.10;;;;;;;;;;4796978;29;20050;-88
2022/01/07 00:27:32;;;;;;;0.10;0.10;;;;;;;;;;4826916;29;20046;-87
2022/01/07 00:29:58;;;;;;;0.10;0.10;;;;;;;;;;4796808;29;20050;-88
2022/01/07 00:32:24;;;;;;;0.00;0.00;;;;;;;;;;4796836;29;20049;-88
2022/01/07 00:34:50;;;;;;;0.10;0.10;;;;;;;;;;4811550;29;20048;-88
2022/01/07 00:37:16;;;;;;;0.10;0.10;;;;;;;;;;4811752;29;20466;-87
2022/01/07 00:39:43;;;;;;;0.10;0.10;;;;;;;;;;4796849;29;20042;-88
2022/01/07 00:42:08;;;;;;;0.00;0.00;;;;;;;;;;4811400;29;20081;-88
2022/01/07 00:44:34;;;;;;;0.10;0.10;;;;;;;;;;4811570;29;20077;-88
2022/01/07 00:47:01;;;;;;;0.10;0.10;;;;;;;;;;4826650;29;20050;-87
2022/01/07 00:49:26;;;;;;;0.00;0.00;;;;;;;;;;4796227;29;20417;-87
2022/01/07 00:51:52;;;;;;;0.30;0.15;;;;;;;;;;4811325;29;20042;-88
2022/01/07 00:54:20;;;;;;;0.10;0.10;;;;;;;;;;4811200;29;20511;-88
2022/01/07 00:56:46;;;;;;;0.00;0.00;;;;;;;;;;4796449;29;20085;-88
2022/01/07 00:59:12;;;;;;;0.00;0.00;;;;;;;;;;4811229;29;20037;-87
2022/01/07 01:01:38;;;;;;;0.20;0.20;;;;;;;;;;4810976;29;20115;-88
2022/01/07 01:04:04;;;;;;;0.10;0.10;;;;;;;;;;4811199;29;20041;-88
2022/01/07 01:06:30;;;;;;;0.25;0.25;;;;;;;;;;4811151;29;20046;-88
2022/01/07 01:08:56;;;;;;;0.10;0.10;;;;;;;;;;4810952;29;20050;-88
2022/01/07 01:11:22;;;;;;;0.10;0.10;;;;;;;;;;4811150;29;20084;-89
2022/01/07 01:13:48;;;;;;;0.10;0.10;;;;;;;;;;4826256;29;20451;-88
2022/01/07 01:16:14;;;;;;;0.08;0.08;;;;;;;;;;4810864;29;20049;-88
2022/01/07 01:18:40;;;;;;;0.10;0.10;;;;;;;;;;4810895;29;20561;-88
2022/01/07 01:21:06;;;;;;;0.10;0.10;;;;;;;;;;4810874;29;20042;-89
2022/01/07 01:23:32;;;;;;;0.10;0.10;;;;;;;;;;4810772;29;20042;-88
2022/01/07 01:25:58;;;;;;;0.10;0.10;;;;;;;;;;4810801;29;20103;-88
2022/01/07 01:28:24;;;;;;;0.10;0.10;;;;;;;;;;4811098;29;20382;-88
2022/01/07 01:30:50;;;;;;;0.10;0.10;;;;;;;;;;4810727;29;20042;-87
2022/01/07 01:33:18;;;;;;;0.85;0.85;;;;;;;;;;4810651;29;20085;-88
2022/01/07 01:35:44;;;;;;;0.10;0.10;;;;;;;;;;4795578;29;20049;-87
2022/01/07 01:38:10;;;;;;;0.10;0.10;;;;;;;;;;4795716;29;20046;-88
2022/01/07 01:40:36;;;;;;;0.10;0.10;;;;;;;;;;4810762;29;20049;-88
2022/01/07 01:43:02;;;;;;;0.10;0.10;;;;;;;;;;4825830;29;20050;-87
2022/01/07 01:45:27;;;;;;;0.10;0.10;;;;;;;;;;4810448;29;20130;-87
2022/01/07 01:47:54;;;;;;;0.10;0.10;;;;;;;;;;4810471;29;20107;-89
2022/01/07 01:50:20;;;;;;;0.10;0.10;;;;;;;;;;4825908;29;20222;-88
2022/01/07 01:52:47;;;;;;;0.10;0.10;;;;;;;;;;4810436;29;20236;-88
2022/01/07 01:55:13;;;;;;;0.10;0.10;;;;;;;;;;4810114;29;20057;-88
2022/01/07 01:57:39;;;;;;;0.10;0.10;;;;;;;;;;4795273;29;20046;-88
2022/01/07 02:00:06;;;;;;;0.10;0.10;;;;;;;;;;4810387;29;20401;-88
2022/01/07 02:02:31;;;;;;;0.10;0.10;;;;;;;;;;4810187;29;20042;-88
2022/01/07 02:04:57;;;;;;;0.10;0.10;;;;;;;;;;4810346;29;20103;-89
2022/01/07 02:07:26;;;;;;;0.00;0.00;;;;;;;;;;4810111;29;20121;-89
2022/01/07 02:09:52;;;;;;;0.13;0.13;;;;;;;;;;4795493;29;20103;-89
2022/01/07 02:12:18;;;;;;;0.10;0.10;;;;;;;;;;4810223;29;20049;-88
2022/01/07 02:14:51;;;;;;;0.10;0.10;;;;;;;;;;4809993;29;20044;-89
2022/01/07 02:17:17;;;;;;;0.28;0.28;;;;;;;;;;4810163;29;20510;-89
2022/01/07 02:19:43;;;;;;;0.13;0.13;;;;;;;;;;4810062;29;20122;-89
2022/01/07 02:22:09;;;;;;;0.00;0.00;;;;;;;;;;4795137;29;20102;-90
2022/01/07 02:24:37;;;;;;;0.03;0.03;;;;;;;;;;4810272;29;20133;-89
2022/01/07 02:27:03;;;;;;;0.10;0.10;;;;;;;;;;4794964;29;20061;-89
2022/01/07 02:29:29;;;;;;;0.10;0.10;;;;;;;;;;4824855;29;20383;-88
2022/01/07 02:31:55;;;;;;;0.00;0.00;;;;;;;;;;4794924;29;20061;-88
2022/01/07 02:34:22;;;;;;;0.10;0.10;;;;;;;;;;4810003;29;20509;-89
2022/01/07 02:36:48;;;;;;;0.00;0.00;;;;;;;;;;4809840;29;20447;-88
2022/01/07 02:39:14;;;;;;;0.20;0.20;;;;;;;;;;4795056;29;20099;-90
2022/01/07 02:41:39;;;;;;;0.00;0.00;;;;;;;;;;4809480;29;20304;-88
2022/01/07 02:44:05;;;;;;;0.10;0.10;;;;;;;;;;4794479;29;20046;-89
2022/01/07 02:46:31;;;;;;;0.00;0.00;;;;;;;;;;4809696;29;20130;-89
2022/01/07 02:48:57;;;;;;;0.00;0.00;;;;;;;;;;4809768;29;20099;-89
2022/01/07 02:51:23;;;;;;;0.00;0.00;;;;;;;;;;4809756;29;20053;-89
2022/01/07 02:53:49;;;;;;;0.10;0.10;;;;;;;;;;4794614;29;20128;-88
2022/01/07 02:56:15;;;;;;;0.00;0.00;;;;;;;;;;4809341;29;20256;-89
2022/01/07 02:58:41;;;;;;;0.10;0.10;;;;;;;;;;4794296;29;20467;-89
2022/01/07 03:01:08;;;;;;;0.10;0.10;;;;;;;;;;4794656;29;20041;-89
2022/01/07 03:03:34;;;;;;;0.10;0.10;;;;;;;;;;4809525;29;20147;-89
2022/01/07 03:05:59;;;;;;;0.10;0.10;;;;;;;;;;4824661;29;20091;-89
2022/01/07 03:08:26;;;;;;;0.00;0.00;;;;;;;;;;4809724;29;20150;-90
2022/01/07 03:10:52;;;;;;;0.10;0.10;;;;;;;;;;4824345;29;20073;-89
2022/01/07 03:13:18;;;;;;;0.10;0.10;;;;;;;;;;4809735;29;20109;-89
2022/01/07 03:15:44;;;;;;;0.00;0.00;;;;;;;;;;4824207;29;20482;-90
2022/01/07 03:18:10;;;;;;;0.10;0.10;;;;;;;;;;4794236;29;20049;-88
2022/01/07 03:20:39;;;;;;;0.00;0.00;;;;;;;;;;4809130;29;20038;-88
2022/01/07 03:23:10;;;;;;;0.10;0.10;;;;;;;;;;4809254;29;20554;-88
2022/01/07 03:25:36;;;;;;;0.00;0.00;;;;;;;;;;4794433;29;20050;-88
2022/01/07 03:28:02;;;;;;;0.10;0.10;;;;;;;;;;4794232;29;20471;-88
2022/01/07 03:30:28;;;;;;;0.32;0.22;;;;;;;;;;4794108;29;20050;-88
2022/01/07 03:32:54;;;;;;;0.00;0.00;;;;;;;;;;4794083;29;20050;-89
2022/01/07 03:35:20;;;;;;;0.10;0.10;;;;;;;;;;4794161;29;20073;-90
2022/01/07 03:37:48;;;;;;;0.10;0.10;;;;;;;;;;4824219;29;20046;-91
2022/01/07 03:40:14;;;;;;;0.00;0.00;;;;;;;;;;4794696;29;20525;-90
2022/01/07 03:42:41;;;;;;;0.00;0.00;;;;;;;;;;4812649;29;20042;-90
2022/01/07 03:45:07;;;;;;;0.10;0.10;;;;;;;;;;4812860;29;20129;-90
2022/01/07 03:47:33;;;;;;;0.10;0.10;;;;;;;;;;4812505;29;20116;-90
2022/01/07 03:49:59;;;;;;;0.10;0.10;;;;;;;;;;4812789;29;20488;-89
2022/01/07 03:52:25;;;;;;;0.10;0.10;;;;;;;;;;4797674;29;20049;-91
2022/01/07 03:54:51;;;;;;;0.40;0.40;;;;;;;;;;4812474;29;20502;-90
2022/01/07 03:57:18;;;;;;;0.10;0.10;;;;;;;;;;4812634;29;20045;-90
2022/01/07 03:59:44;;;;;;;0.00;0.00;;;;;;;;;;4812305;29;20046;-88
2022/01/07 04:02:10;;;;;;;0.10;0.10;;;;;;;;;;4827161;29;20050;-89
2022/01/07 04:04:36;;;;;;;0.00;0.00;;;;;;;;;;4827131;29;20073;-89
2022/01/07 04:07:02;;;;;;;0.20;0.20;;;;;;;;;;4812347;29;20065;-89
2022/01/07 04:09:28;;;;;;;1.20;1.20;;;;;;;;;;4812170;29;20060;-88
2022/01/07 04:11:54;;;;;;;0.10;0.10;;;;;;;;;;4812347;29;20046;-90
2022/01/07 04:14:20;;;;;;;0.10;0.10;;;;;;;;;;4812024;29;20094;-90
2022/01/07 04:16:46;;;;;;;0.10;0.10;;;;;;;;;;4812215;29;20046;-90
2022/01/07 04:19:12;;;;;;;0.10;0.10;;;;;;;;;;4827079;29;20065;-90
2022/01/07 04:21:38;;;;;;;0.20;0.20;;;;;;;;;;4827153;29;20046;-89
2022/01/07 04:24:04;;;;;;;0.00;0.00;;;;;;;;;;4811922;29;20042;-90
2022/01/07 04:26:30;;;;;;;0.00;0.00;;;;;;;;;;4812456;29;20370;-90
2022/01/07 04:28:56;;;;;;;0.10;0.10;;;;;;;;;;4811798;29;20130;-88
2022/01/07 04:31:22;;;;;;;0.10;0.10;;;;;;;;;;4826623;29;20559;-89
2022/01/07 04:33:48;;;;;;;0.35;0.35;;;;;;;;;;4796787;29;20057;-89
2022/01/07 04:36:14;;;;;;;0.20;0.20;;;;;;;;;;4811435;29;20038;-89
2022/01/07 04:38:40;;;;;;;0.00;0.00;;;;;;;;;;4796553;29;20046;-89
2022/01/07 04:41:06;;;;;;;0.10;0.10;;;;;;;;;;4811520;29;20049;-89
2022/01/07 04:43:32;;;;;;;0.63;0.20;;;;;;;;;;4811386;29;20038;-89
2022/01/07 04:45:58;;;;;;;0.10;0.10;;;;;;;;;;4796726;29;20049;-89
2022/01/07 04:48:24;;;;;;;0.10;0.10;;;;;;;;;;4826384;29;20042;-89
2022/01/07 04:50:50;;;;;;;0.22;0.22;;;;;;;;;;4811578;29;20046;-89
2022/01/07 04:53:16;;;;;;;0.00;0.00;;;;;;;;;;4811249;29;20041;-89
2022/01/07 04:55:44;;;;;;;0.00;0.00;;;;;;;;;;4811200;29;20179;-90
2022/01/07 04:58:11;;;;;;;0.00;0.00;;;;;;;;;;4826336;29;20046;-90
2022/01/07 05:00:37;;;;;;;0.00;0.00;;;;;;;;;;4811273;29;20042;-89
2022/01/07 05:03:03;;;;;;;0.10;0.10;;;;;;;;;;4796230;29;20042;-89
2022/01/07 05:05:29;;;;;;;0.00;0.00;;;;;;;;;;4826308;29;20092;-90
2022/01/07 05:07:55;;;;;;;0.13;0.13;;;;;;;;;;4796202;29;20041;-89
2022/01/07 05:10:23;;;;;;;0.10;0.10;;;;;;;;;;4811372;29;20046;-91
2022/01/07 05:12:49;;;;;;;0.10;0.10;;;;;;;;;;4810968;29;20041;-90
2022/01/07 05:15:15;;;;;;;0.03;0.03;;;;;;;;;;4811418;29;20046;-90
2022/01/07 05:17:42;;;;;;;2.17;0.52;;;;;;;;;;4811017;29;20479;-90
2022/01/07 05:20:08;;;;;;;0.10;0.10;;;;;;;;;;4810844;29;20113;-90
2022/01/07 05:22:34;;;;;;;0.10;0.10;;;;;;;;;;4811022;29;20129;-91
2022/01/07 05:25:00;;;;;;;0.03;0.03;;;;;;;;;;4826552;29;20129;-90
2022/01/07 05:27:26;;;;;;;0.10;0.10;;;;;;;;;;4811275;29;20060;-90
2022/01/07 05:29:52;;;;;;;0.10;0.10;;;;;;;;;;4810927;29;20097;-90
2022/01/07 05:32:19;;;;;;;0.00;0.00;;;;;;;;;;4811238;29;20049;-90
2022/01/07 05:34:45;;;;;;;0.00;0.00;;;;;;;;;;4825811;29;20136;-89
2022/01/07 05:37:11;;;;;;;0.10;0.10;;;;;;;;;;4810544;29;20126;-89
2022/01/07 05:39:37;;;;;;;0.00;0.00;;;;;;;;;;4810731;29;20042;-90
2022/01/07 05:42:04;;;;;;;0.10;0.10;;;;;;;;;;4810857;29;20049;-90
2022/01/07 05:44:30;;;;;;;0.00;0.00;;;;;;;;;;4795785;29;20121;-90
2022/01/07 05:46:55;;;;;;;0.00;0.00;;;;;;;;;;4810785;29;20458;-89
2022/01/07 05:49:21;;;;;;;0.10;0.10;;;;;;;;;;4825500;29;20046;-91
2022/01/07 05:51:47;;;;;;;0.05;0.05;;;;;;;;;;4810868;29;20046;-91
2022/01/07 05:54:13;;;;;;;0.10;0.10;;;;;;;;;;4825843;29;20072;-91
2022/01/07 05:56:39;;;;;;;0.00;0.00;;;;;;;;;;4795679;29;20161;-92
2022/01/07 05:59:05;;;;;;;0.03;0.03;;;;;;;;;;4796068;29;20053;-92
2022/01/07 06:01:31;;;;;;;0.10;0.10;;;;;;;;;;4811170;29;20077;-93
2022/01/07 06:03:57;;;;;;;0.10;0.10;;;;;;;;;;4810322;29;20137;-92
2022/01/07 06:06:23;;;;;;;0.00;0.00;;;;;;;;;;4795955;29;20046;-91
2022/01/07 06:08:49;;;;;;;0.10;0.10;;;;;;;;;;4795736;29;20410;-91
2022/01/07 06:11:15;;;;;;;0.00;0.00;;;;;;;;;;4796315;29;20045;-91
2022/01/07 06:13:41;;;;;;;0.00;0.00;;;;;;;;;;4825883;29;20106;-91
2022/01/07 06:16:07;;;;;;;0.10;0.10;;;;;;;;;;4810719;29;20522;-93
2022/01/07 06:18:33;;;;;;;0.10;0.10;;;;;;;;;;4796020;29;20045;-92
2022/01/07 06:20:59;;;;;;;0.08;0.08;;;;;;;;;;4795640;29;20042;-92
2022/01/07 06:23:25;;;;;;;0.10;0.10;;;;;;;;;;4810791;29;20048;-91
2022/01/07 06:25:51;;;;;;;0.10;0.10;;;;;;;;;;4810638;29;20050;-91
2022/01/07 06:28:17;;;;;;;0.00;0.00;;;;;;;;;;4810507;29;20050;-90
2022/01/07 06:30:43;;;;;;;1.38;1.38;;;;;;;;;;4795702;29;20414;-92
2022/01/07 06:33:09;;;;;;;0.10;0.10;;;;;;;;;;4810273;29;20062;-91
2022/01/07 06:35:35;;;;;;;0.00;0.00;;;;;;;;;;4810562;29;20137;-91
2022/01/07 06:38:01;;;;;;;0.10;0.10;;;;;;;;;;4795233;29;20105;-90
2022/01/07 06:40:27;;;;;;;0.08;0.08;;;;;;;;;;4795377;29;20098;-93
2022/01/07 06:42:53;;;;;;;0.10;0.10;;;;;;;;;;4810644;29;20408;-92
2022/01/07 06:45:19;;;;;;;0.10;0.10;;;;;;;;;;4795528;29;20076;-92
2022/01/07 06:47:45;;;;;;;0.00;0.00;;;;;;;;;;4795776;29;20110;-92
2022/01/07 06:50:14;;;;;;;0.10;0.10;;;;;;;;;;4795795;29;20054;-93
2022/01/07 06:52:40;;;;;;;0.17;0.17;;;;;;;;;;4810904;29;20077;-93
2022/01/07 06:55:06;;;;;;;0.10;0.10;;;;;;;;;;4795480;29;20068;-92
2022/01/07 06:57:32;;;;;;;0.00;0.00;;;;;;;;;;4810614;29;20058;-93
2022/01/07 06:59:58;;;;;;;0.10;0.10;;;;;;;;;;4810524;29;20390;-93
2022/01/07 07:02:24;;;;;;;0.00;0.00;;;;;;;;;;4795665;29;20115;-94
2022/01/07 07:04:50;;;;;;;0.10;0.10;;;;;;;;;;4795541;29;20042;-92
2022/01/07 07:07:16;;;;;;;0.10;0.10;;;;;;;;;;4825715;29;20041;-93
2022/01/07 07:09:42;;;;;;;0.10;0.10;;;;;;;;;;4795790;29;20212;-92
2022/01/07 07:12:09;;;;;;;0.47;0.10;;;;;;;;;;4809948;29;20482;-91
2022/01/07 07:14:36;;;;;;;0.00;0.00;;;;;;;;;;4825451;29;20052;-89
2022/01/07 07:17:02;;;;;;;0.00;0.00;;;;;;;;;;4813191;29;20510;-88
2022/01/07 07:19:28;;;;;;;0.20;0.17;;;;;;;;;;4813220;29;20104;-88
2022/01/07 07:21:54;;;;;;;0.10;0.10;;;;;;;;;;4828151;29;20486;-89
2022/01/07 07:24:20;;;;;;;0.10;0.10;;;;;;;;;;4798366;29;20547;-90
2022/01/07 07:26:46;;;;;;;0.00;0.00;;;;;;;;;;4798322;29;20038;-90
2022/01/07 07:29:12;;;;;;;0.00;0.00;;;;;;;;;;4827958;29;20056;-90
2022/01/07 07:31:41;;;;;;;0.10;0.10;;;;;;;;;;4813223;29;20050;-89
2022/01/07 07:36:44;;;;;;;0.35;0.10;;;;;;;;;;4813882;29;20651;-88
2022/01/07 07:39:10;;;;;;;0.00;0.00;;;;;;;;;;4798187;29;20053;-90
2022/01/07 07:41:37;;;;;;;0.05;0.05;;;;;;;;;;4812961;29;20042;-89
2022/01/07 07:44:03;;;;;;;0.00;0.00;;;;;;;;;;4812613;29;20102;-88
2022/01/07 07:46:30;;;;;;;0.10;0.10;;;;;;;;;;4812396;29;20065;-89
2022/01/07 07:48:56;;;;;;;0.00;0.00;;;;;;;;;;4797884;29;20106;-90
2022/01/07 07:51:22;;;;;;;0.05;0.05;;;;;;;;;;4812890;29;20077;-91
2022/01/07 07:53:48;;;;;;;0.00;0.00;;;;;;;;;;4797698;29;20054;-90
2022/01/07 07:56:15;;;;;;;0.00;0.00;;;;;;;;;;4812634;29;20050;-91
2022/01/07 07:58:41;;;;;;;0.00;0.00;;;;;;;;;;4813086;29;20124;-91
2022/01/07 08:01:07;;;;;;;0.00;0.00;;;;;;;;;;4797511;29;20466;-90
2022/01/07 08:03:33;;;;;;;0.00;0.00;;;;;;;;;;4812597;29;20077;-88
2022/01/07 08:05:59;;;;;;;0.00;0.00;;;;;;;;;;4812100;29;20081;-88
2022/01/07 08:08:25;;;;;;;0.10;0.10;;;;;;;;;;4812127;29;20046;-87
2022/01/07 08:10:54;;;;;;;0.03;0.03;;;;;;;;;;4825237;29;20049;-87
2022/01/07 08:13:29;;;;;;;0.10;0.10;;;;;;;;;;4814772;29;20494;-88
2022/01/07 08:15:58;;;;;;;0.15;0.15;;;;;;;;;;4799276;29;20333;-88
2022/01/07 08:18:31;;;;;;;0.00;0.00;;;;;;;;;;4805387;29;20440;-87
2022/01/07 08:20:59;;;;;;;0.10;0.10;;;;;;;;;;4801321;29;20505;-87
2022/01/07 08:23:25;;;;;;;0.80;0.30;;;;;;;;;;4796296;29;20094;-88
2022/01/07 08:25:51;;;;;;;0.00;0.00;;;;;;;;;;4806831;29;20049;-88
2022/01/07 08:28:18;;;;;;;0.10;0.10;;;;;;;;;;4814708;29;20045;-89
2022/01/07 08:36:21;;;;;;;0.00;0.00;;;;;;;;;;4831918;29;20137;-87
2022/01/07 08:38:48;;;;;;;0.10;0.10;;;;;;;;;;4829722;29;20149;-89
2022/01/07 08:41:14;;;;;;;0.10;0.10;;;;;;;;;;4815571;29;20053;-92
2022/01/07 08:43:40;;;;;;;0.10;0.10;;;;;;;;;;4829802;29;20129;-89
2022/01/07 08:46:06;;;;;;;0.00;0.00;;;;;;;;;;4829874;29;20090;-90
2022/01/07 08:48:32;;;;;;;0.00;0.00;;;;;;;;;;4829839;29;20088;-90
2022/01/07 08:50:58;;;;;;;0.00;0.00;;;;;;;;;;4829562;29;20509;-89
2022/01/07 08:53:24;;;;;;;0.10;0.10;;;;;;;;;;4829739;29;20387;-89
2022/01/07 08:55:50;;;;;;;0.00;0.00;;;;;;;;;;4829547;29;20419;-93
2022/01/07 08:58:16;;;;;;;0.10;0.10;;;;;;;;;;4815073;29;20045;-93
2022/01/07 09:00:42;;;;;;;0.00;0.00;;;;;;;;;;4830309;29;20450;-91
2022/01/07 09:03:08;;;;;;;0.10;0.10;;;;;;;;;;4829775;29;20106;-91
2022/01/07 09:05:34;;;;;;;0.00;0.00;;;;;;;;;;4830373;29;20045;-92
2022/01/07 09:08:00;;;;;;;0.10;0.10;;;;;;;;;;4815177;29;20053;-92
2022/01/07 09:10:26;;;;;;;0.00;0.00;;;;;;;;;;4830349;29;20053;-92
2022/01/07 09:12:53;;;;;;;0.00;0.00;;;;;;;;;;4845150;29;20049;-92
2022/01/07 09:15:19;;;;;;;0.10;0.10;;;;;;;;;;4816427;29;20217;-94
2022/01/07 09:17:45;;;;;;;0.10;0.10;;;;;;;;;;4814828;29;20277;-93
2022/01/07 09:20:11;;;;;;;0.10;0.10;;;;;;;;;;4814774;29;20041;-93
2022/01/07 09:22:40;;;;;;;0.00;0.00;;;;;;;;;;4814853;29;20045;-92
2022/01/07 09:25:06;;;;;;;0.03;0.03;;;;;;;;;;4814141;29;20049;-93
2022/01/07 09:27:33;;;;;;;0.10;0.10;;;;;;;;;;4814806;29;20046;-94
2022/01/07 09:29:59;;;;;;;0.00;0.00;;;;;;;;;;4815054;29;20136;-93
2022/01/07 09:32:25;;;;;;;0.10;0.10;;;;;;;;;;4815038;29;20347;-93
2022/01/07 09:34:53;;;;;;;0.10;0.10;;;;;;;;;;4815083;29;20045;-93
2022/01/07 09:37:19;;;;;;;0.10;0.10;;;;;;;;;;4830305;29;20132;-94
2022/01/07 09:39:45;;;;;;;0.10;0.10;;;;;;;;;;4815052;29;20137;-94
2022/01/07 09:42:11;;;;;;;0.00;0.00;;;;;;;;;;4815167;29;20049;-93
2022/01/07 09:44:41;;;;;;;0.00;0.00;;;;;;;;;;4814586;29;20068;-93
2022/01/07 09:47:07;;;;;;;0.00;0.00;;;;;;;;;;4830149;29;20053;-93
2022/01/07 09:49:34;;;;;;;0.00;0.00;;;;;;;;;;4814523;29;20121;-94
2022/01/07 09:52:03;;;;;;;0.00;0.00;;;;;;;;;;4814515;29;20049;-93
2022/01/07 09:54:29;;;;;;;0.20;0.20;;;;;;;;;;4814601;29;20428;-94
2022/01/07 09:56:55;;;;;;;0.20;0.20;;;;;;;;;;4829745;29;20486;-95
2022/01/07 09:59:37;;;;;;;;;;;;;;;;;;;;;
2022/01/07 10:02:22;;;;;;;0.10;0.10;;;;;;;;;;4822056;29;20055;-92
2022/01/07 10:04:48;;;;;;;0.10;0.10;;;;;;;;;;4808064;29;20051;-92
2022/01/07 10:07:20;;;;;;;0.08;0.08;;;;;;;;;;4823159;29;20073;-94
2022/01/07 10:09:58;;;;;;;0.10;0.10;;;;;;;;;;4823088;29;20046;-92
2022/01/07 10:12:25;;;;;;;0.20;0.20;;;;;;;;;;4807999;29;20047;-92
2022/01/07 10:15:10;;;;;;;0.10;0.10;;;;;;;;;;4792783;29;20095;-92
2022/01/07 10:17:36;;;;;;;0.10;0.10;;;;;;;;;;4807993;29;20392;-93
2022/01/07 10:20:04;;;;;;;0.22;0.22;;;;;;;;;;4793308;29;20049;-95
2022/01/07 10:22:30;;;;;;;0.10;0.10;;;;;;;;;;4793167;29;20049;-93
2022/01/07 10:25:00;;;;;;;0.10;0.10;;;;;;;;;;4793447;29;20121;-93
2022/01/07 10:27:36;;;;;;;0.10;0.10;;;;;;;;;;4823101;29;20107;-93
2022/01/07 10:30:02;;;;;;;0.20;0.20;;;;;;;;;;4807464;29;20487;-90
2022/01/07 10:32:29;;;;;;;0.10;0.10;;;;;;;;;;4807674;29;20061;-94
2022/01/07 10:35:04;;;;;;;0.00;0.00;;;;;;;;;;4792955;29;20118;-92
2022/01/07 10:37:30;;;;;;;0.20;0.20;;;;;;;;;;4792479;29;20479;-91
2022/01/07 10:39:56;;;;;;;0.00;0.00;;;;;;;;;;4792313;29;20263;-92
2022/01/07 10:42:23;;;;;;;0.00;0.00;;;;;;;;;;4791898;29;20476;-90
2022/01/07 10:44:59;;;;;;;0.10;0.10;;;;;;;;;;4806944;29;20370;-90
2022/01/07 10:47:25;;;;;;;0.00;0.00;;;;;;;;;;4806736;29;20526;-89
2022/01/07 10:49:51;;;;;;;0.10;0.10;;;;;;;;;;4791200;29;20088;-91
2022/01/07 10:52:23;;;;;;;0.00;0.00;;;;;;;;;;4806900;29;20460;-90
2022/01/07 10:55:28;;;;;;;0.10;0.10;;;;;;;;;;4801444;29;20105;-90
2022/01/07 10:57:54;;;;;;;0.00;0.00;;;;;;;;;;4803128;29;20051;-91
2022/01/07 11:00:21;;;;;;;0.00;0.00;;;;;;;;;;4803215;29;20123;-94
2022/01/07 11:02:47;;;;;;;0.10;0.10;;;;;;;;;;4812426;29;20053;-92
2022/01/07 11:05:13;;;;;;;0.10;0.10;;;;;;;;;;4837784;29;20133;-93
2022/01/07 11:07:39;;;;;;;0.10;0.10;;;;;;;;;;4822403;29;20103;-93
2022/01/07 11:10:05;;;;;;;0.08;0.08;;;;;;;;;;4837867;29;20095;-90
2022/01/07 11:12:32;;;;;;;0.10;0.10;;;;;;;;;;4817842;29;20448;-92
2022/01/07 11:14:58;;;;;;;0.00;0.00;;;;;;;;;;4809860;29;20542;-90
2022/01/07 11:17:24;;;;;;;0.00;0.00;;;;;;;;;;4824763;29;20041;-90
2022/01/07 11:19:53;;;;;;;0.75;0.20;;;;;;;;;;4809883;29;20049;-91
2022/01/07 11:22:19;;;;;;;0.05;0.05;;;;;;;;;;4825203;29;20046;-91
2022/01/07 11:25:06;;;;;;;0.15;0.15;;;;;;;;;;4824850;29;20125;-90
2022/01/07 11:27:32;;;;;;;0.00;0.00;;;;;;;;;;4824107;29;20087;-90
2022/01/07 11:30:04;;;;;;;0.10;0.10;;;;;;;;;;4809261;29;20483;-91
2022/01/07 11:32:30;;;;;;;0.10;0.10;;;;;;;;;;4809199;29;20096;-90
2022/01/07 11:34:57;;;;;;;0.10;0.10;;;;;;;;;;4824565;29;20077;-90
2022/01/07 11:37:35;;;;;;;0.10;0.10;;;;;;;;;;4809505;29;20547;-89
2022/01/07 11:40:01;;;;;;;0.10;0.10;;;;;;;;;;4824584;29;20046;-90
2022/01/07 11:42:43;;;;;;;0.00;0.00;;;;;;;;;;4809307;29;20045;-90
2022/01/07 11:45:33;;;;;;;0.10;0.10;;;;;;;;;;4809349;29;20038;-91
2022/01/07 11:48:11;;;;;;;0.22;0.10;;;;;;;;;;4815371;29;20054;-91
2022/01/07 11:50:54;;;;;;;0.20;0.20;;;;;;;;;;4824989;29;20061;-91
2022/01/07 11:53:20;;;;;;;0.10;0.10;;;;;;;;;;4809287;29;20038;-91
2022/01/07 11:55:49;;;;;;;0.10;0.10;;;;;;;;;;4824685;29;20046;-90
2022/01/07 11:58:16;;;;;;;0.10;0.10;;;;;;;;;;4824601;29;20152;-91
2022/01/07 12:00:48;;;;;;;0.10;0.10;;;;;;;;;;4824673;29;20054;-91
2022/01/07 12:03:14;;;;;;;0.15;0.15;;;;;;;;;;4812308;29;20491;-91
2022/01/07 12:05:40;;;;;;;0.17;0.17;;;;;;;;;;4827829;29;20053;-91
2022/01/07 12:08:06;;;;;;;0.10;0.10;;;;;;;;;;4827730;29;20073;-91
2022/01/07 12:10:32;;;;;;;0.10;0.10;;;;;;;;;;4814768;29;20045;-91
2022/01/07 12:13:01;;;;;;;0.20;0.20;;;;;;;;;;4831864;29;20374;-91
2022/01/07 12:15:30;;;;;;;0.10;0.10;;;;;;;;;;4821584;29;20057;-90
2022/01/07 12:18:08;;;;;;;0.10;0.10;;;;;;;;;;4833366;29;20086;-92
2022/01/07 12:20:48;;;;;;;0.10;0.10;;;;;;;;;;4838733;29;20495;-93
2022/01/07 12:23:21;;;;;;;0.20;0.20;;;;;;;;;;4828199;29;20050;-92
2022/01/07 12:25:47;;;;;;;;;;;;;;;;;;4813626;29;20038;-91
2022/01/07 12:28:13;;;;;;;0.10;0.10;;;;;;;;;;4827745;29;20432;-93
2022/01/07 12:30:41;;;;;;;0.10;0.10;;;;;;;;;;4827976;29;20045;-92
2022/01/07 12:33:07;;;;;;;0.10;0.10;;;;;;;;;;4827672;29;20097;-93
2022/01/07 12:35:33;;;;;;;0.10;0.10;;;;;;;;;;4827141;29;20057;-92
2022/01/07 12:37:59;;;;;;;0.10;0.10;;;;;;;;;;4827794;29;20050;-93
2022/01/07 12:40:25;;;;;;;0.10;0.10;;;;;;;;;;4812432;29;20062;-91
2022/01/07 12:42:51;;;;;;;0.17;0.17;;;;;;;;;;4827306;29;20048;-88
2022/01/07 12:45:20;;;;;;;0.10;0.10;;;;;;;;;;4812229;29;20050;-92
2022/01/07 12:47:46;;;;;;;0.10;0.10;;;;;;;;;;4827432;29;20046;-87
2022/01/07 12:50:12;;;;;;;0.10;0.10;;;;;;;;;;4826531;29;20046;-91
2022/01/07 12:52:41;;;;;;;0.10;0.10;;;;;;;;;;4826471;29;20380;-90
2022/01/07 12:55:15;;;;;;;0.10;0.10;;;;;;;;;;4811488;29;20084;-90
2022/01/07 12:57:48;;;;;;;0.10;0.10;;;;;;;;;;4811406;29;20050;-90
2022/01/07 13:00:14;;;;;;;0.10;0.10;;;;;;;;;;4811227;29;20495;-90
2022/01/07 13:02:43;;;;;;;0.10;0.10;;;;;;;;;;4811490;29;20398;-91
2022/01/07 13:05:13;;;;;;;0.10;0.10;;;;;;;;;;4826518;29;20081;-91
2022/01/07 13:07:42;;;;;;;0.10;0.10;;;;;;;;;;4826687;29;20046;-90
2022/01/07 13:10:08;;;;;;;0.10;0.10;;;;;;;;;;4826322;29;20057;-90
2022/01/07 13:12:34;;;;;;;0.10;0.10;;;;;;;;;;4811107;29;20072;-90
2022/01/07 13:15:00;;;;;;;0.10;0.10;;;;;;;;;;4826343;29;20499;-91
2022/01/07 13:17:28;;;;;;;0.10;0.10;;;;;;;;;;4826380;29;20087;-90
2022/01/07 13:19:54;;;;;;;0.10;0.10;;;;;;;;;;4826832;29;20228;-91
2022/01/07 13:22:23;;;;;;;0.10;0.10;;;;;;;;;;4811155;29;20125;-91
2022/01/07 13:24:49;;;;;;;0.10;0.10;;;;;;;;;;4811011;29;20208;-90
2022/01/07 13:27:15;;;;;;;0.10;0.10;;;;;;;;;;4811189;29;20555;-91
2022/01/07 13:29:46;;;;;;;0.10;0.10;;;;;;;;;;4811022;29;20060;-90
2022/01/07 13:32:12;;;;;;;0.10;0.10;;;;;;;;;;4811401;29;20490;-90
2022/01/07 13:34:40;;;;;;;0.10;0.10;;;;;;;;;;4826113;29;20085;-90
2022/01/07 13:37:16;;;;;;;0.10;0.10;;;;;;;;;;4826221;29;20140;-90
2022/01/07 13:39:43;;;;;;;0.10;0.10;;;;;;;;;;4825789;29;20064;-90
2022/01/07 13:42:09;;;;;;;0.10;0.10;;;;;;;;;;4825780;29;20098;-89
2022/01/07 13:44:54;;;;;;;0.10;0.10;;;;;;;;;;4810777;29;20046;-89
2022/01/07 13:47:27;;;;;;;0.10;0.10;;;;;;;;;;4825865;29;20049;-88
2022/01/07 13:50:05;;;;;;;0.10;0.10;;;;;;;;;;4826061;29;20059;-90
2022/01/07 13:52:33;;;;;;;0.10;0.10;;;;;;;;;;4810407;29;20057;-90
2022/01/07 13:54:59;;;;;;;0.10;0.10;;;;;;;;;;4826219;29;20087;-89
2022/01/07 13:57:28;;;;;;;0.10;0.10;;;;;;;;;;4809991;29;20054;-90
2022/01/07 13:59:54;;;;;;;0.10;0.10;;;;;;;;;;4810614;29;20074;-90
2022/01/07 14:02:21;;;;;;;0.10;0.10;;;;;;;;;;4825546;29;20495;-91
2022/01/07 14:04:51;;;;;;;0.10;0.10;;;;;;;;;;4825534;29;20045;-89
2022/01/07 14:07:21;;;;;;;0.10;0.10;;;;;;;;;;4810085;29;20563;-90
2022/01/07 14:10:06;;;;;;;0.00;0.00;;;;;;;;;;4810325;29;20475;-90
2022/01/07 14:12:32;;;;;;;0.10;0.10;;;;;;;;;;4825320;29;20050;-89
2022/01/07 14:15:11;;;;;;;0.10;0.10;;;;;;;;;;4810281;29;20050;-89
2022/01/07 14:17:37;;;;;;;0.10;0.10;;;;;;;;;;4825363;29;20042;-89
2022/01/07 14:20:04;;;;;;;0.10;0.10;;;;;;;;;;4809978;29;20056;-91
2022/01/07 14:22:30;;;;;;;0.10;0.10;;;;;;;;;;4810450;29;20058;-91
2022/01/07 14:24:56;;;;;;;0.10;0.10;;;;;;;;;;4824651;29;20077;-89
2022/01/07 14:27:31;;;;;;;0.10;0.10;;;;;;;;;;4825068;29;20049;-89
2022/01/07 14:29:57;;;;;;;0.10;0.10;;;;;;;;;;4810234;29;20381;-89
2022/01/07 14:32:23;;;;;;;0.10;0.10;;;;;;;;;;4809604;29;20148;-89
2022/01/07 14:34:49;;;;;;;0.10;0.10;;;;;;;;;;4809996;29;20393;-90
2022/01/07 14:37:16;;;;;;;0.00;0.00;;;;;;;;;;4824950;29;20065;-90
2022/01/07 14:39:44;;;;;;;0.10;0.10;;;;;;;;;;4824950;29;20081;-90
2022/01/07 14:42:10;;;;;;;0.10;0.10;;;;;;;;;;4825239;29;20042;-90
2022/01/07 14:44:35;;;;;;;0.10;0.10;;;;;;;;;;4809767;29;20046;-93
2022/01/07 14:47:02;;;;;;;0.10;0.10;;;;;;;;;;4810355;29;20042;-90
2022/01/07 14:49:28;;;;;;;0.10;0.10;;;;;;;;;;4825214;29;20050;-91
2022/01/07 14:51:54;;;;;;;0.10;0.10;;;;;;;;;;4824988;29;20048;-91